Sugar City, Colorado
Current Conditions -  °F | °C
As of 12:53 AM on Sunday 26 Oct 2014 (Local Time) from KLHX Reporting Station
Clear Clear  
Wind Chill: 53°   Ceiling: Unl
Heat Index: 53°   Visibility: 10mi
Dew Point: 35°   Wind: 15mph
Humidity: 50%   Direction: 280°W
Pressure: 29.9"   Gusts: NA
Location:  38.23°N, 103.66°W
Report Text: KLHX 260653Z AUTO 28013KT 10SM CLR 12/02 A2990 RMK AO2 SLP075 T01170017 402940061
Loading
Personal Weather Stations






























Interactive Weather Map
Tropical Storm Tracking
New forecast layout! Learn more

10-Day Weather Forecast

Advertisements
Track Severe Weather on mobile